Mobile, AL

8:08 PM CST on November 22, 2014 (GMT -0600)
Saybrook | Change Station
CLOSE
Current Station
Personal Weather Station
Location: Mobile, AL
Elevation: 92 ft
Nearby Weather Stations
Active Advisory: Coastal Hazard Statement

Elev 92 ft 30.61 °N, 88.21 °W | Updated 7 seconds ago

Overcast
Overcast
60.4 °F
Feels Like 60.4 °F
N
4.7
Wind Variable Wind from ESE
Gusts 6.0 mph

Today
High -- | Low -- °F
--% Chance of Precip.
Yesterday
High -- | Low -- °F
Precip. -- in
6:24 AM 4:52 PM
New Moon, 0% visible
Pressure 30.07 in
Visibility 5.0 miles
Clouds Overcast 900 ft
Dew Point 58 °F
Humidity 91%
Rainfall 0.00 in
Snow Depth Not available.
UV 0 out of 12
Pollen 1.60 out of 12
Air Quality Not available.
Flu Activity Not available.
METAR KMOB 230156Z 08012KT 5SM -RA BR OVC009 16/15 A3007 RMK AO2 RAE0059B56 SLP182 P0000 T01560150

More Conditions Fewer Conditions

Pressure 30.07 in
Visibility 5.0 miles
Clouds Overcast 900 ft
Dew Point 58 °F
Humidity 91%
Rainfall 0.00 in
Snow Depth Not available.
UV 0 out of 12
Pollen 1.60 out of 12
Air Quality Not available.
Flu Activity Not available.
METAR KMOB 230156Z 08012KT 5SM -RA BR OVC009 16/15 A3007 RMK AO2 RAE0059B56 SLP182 P0000 T01560150

More Conditions Fewer Conditions

10-Day Weather Forecast

Almanac

Astronomy

Nov. 22, 2014 Rise Set
Actual Time
Civil Twilight
Nautical Twilight
Astronomical Twilight
Moon
Length of Visible Light
Length of Day
Tomorrow will be .
, % of the Moon is Illuminated

Today's Extremes

State Highs State Lows

Community

WunderPhotos

Upload Photos

1,772,969 photos uploaded!

WunderBlogs® & News

Nearby

Air Quality

  Air Quality AQ Index Pollutant
Not available.

Snow Depth

Station Depth Elevation

Earthquake Activity

City Distance Mag. Time & Date
Minimum magnitude displayed is 2.5.

Coastal Water Temperatures

Place Temperature

Nearby Weather Stations